createdAt,value
2018-06-11T00:00:32.905Z,57.17
2018-06-11T00:02:59.750Z,56.99
2018-06-11T00:05:26.547Z,56.70
2018-06-11T00:07:53.273Z,56.98
2018-06-11T00:10:20.073Z,55.90
2018-06-11T00:12:50.359Z,56.44
2018-06-11T00:15:16.985Z,55.99
2018-06-11T00:17:43.741Z,56.19
2018-06-11T00:20:10.273Z,56.07
2018-06-11T00:22:38.128Z,56.86
2018-06-11T00:25:04.804Z,57.32
2018-06-11T00:27:31.579Z,57.01
2018-06-11T00:29:58.293Z,56.49
2018-06-11T00:32:25.954Z,54.88
2018-06-11T00:34:52.848Z,52.21
2018-06-11T00:37:19.448Z,51.10
2018-06-11T00:39:46.151Z,50.80
2018-06-11T00:42:15.946Z,50.37
2018-06-11T00:44:42.731Z,50.59
2018-06-11T00:47:09.502Z,50.63
2018-06-11T00:49:36.142Z,50.65
2018-06-11T00:52:10.699Z,50.48
2018-06-11T00:54:37.393Z,51.87
2018-06-11T00:57:04.096Z,52.06
2018-06-11T00:59:30.676Z,53.47
2018-06-11T01:01:57.472Z,54.15
2018-06-11T01:04:24.096Z,54.46
2018-06-11T01:06:50.782Z,54.85
2018-06-11T01:09:17.465Z,55.56
2018-06-11T01:11:48.005Z,56.10
2018-06-11T01:14:14.672Z,57.32
2018-06-11T01:16:41.378Z,56.44
2018-06-11T01:19:08.093Z,52.82
2018-06-11T01:21:34.890Z,51.58
2018-06-11T01:24:02.501Z,51.16
2018-06-11T01:26:29.189Z,49.71
2018-06-11T01:28:55.821Z,49.03
2018-06-11T01:31:22.399Z,48.39
2018-06-11T01:33:49.373Z,47.99
2018-06-11T01:36:16.083Z,48.24
2018-06-11T01:38:42.849Z,49.43
2018-06-11T01:41:09.639Z,49.56
2018-06-11T01:43:39.727Z,49.87
2018-06-11T01:46:06.500Z,50.54
2018-06-11T01:48:33.305Z,50.82
2018-06-11T01:51:00.082Z,51.12
2018-06-11T01:53:34.615Z,51.16
2018-06-11T01:56:01.377Z,51.21
2018-06-11T01:58:28.214Z,52.20
2018-06-11T02:00:54.987Z,54.78
2018-06-11T02:03:22.911Z,54.73
2018-06-11T02:05:49.696Z,56.26
2018-06-11T02:08:16.415Z,55.84
2018-06-11T02:10:43.130Z,56.46
2018-06-11T02:13:13.507Z,55.66
2018-06-11T02:15:40.155Z,57.35
2018-06-11T02:18:06.936Z,57.94
2018-06-11T02:20:33.588Z,57.98
2018-06-11T02:23:06.121Z,58.11
2018-06-11T02:25:32.722Z,58.42
2018-06-11T02:27:59.313Z,55.68
2018-06-11T02:30:26.231Z,54.83
2018-06-11T02:32:52.974Z,53.92
2018-06-11T02:35:19.642Z,53.46
2018-06-11T02:37:46.371Z,52.99
2018-06-11T02:40:13.057Z,53.37
2018-06-11T02:42:42.992Z,54.11
2018-06-11T02:45:09.806Z,55.39
2018-06-11T02:47:36.437Z,55.36
2018-06-11T02:50:03.108Z,58.43
2018-06-11T02:52:37.363Z,57.89
2018-06-11T02:55:04.130Z,58.37
2018-06-11T02:57:30.666Z,58.76
2018-06-11T02:59:57.531Z,59.36
2018-06-11T03:02:24.145Z,60.14
2018-06-11T03:04:50.823Z,61.02
2018-06-11T03:07:17.669Z,60.08
2018-06-11T03:09:44.365Z,60.12
2018-06-11T03:12:11.081Z,60.65
2018-06-11T03:14:37.720Z,61.11
2018-06-11T03:17:04.324Z,60.87
2018-06-11T03:19:34.918Z,61.17
2018-06-11T03:22:06.332Z,61.18
2018-06-11T03:24:32.818Z,61.35
2018-06-11T03:26:59.487Z,63.17
2018-06-11T03:29:26.430Z,63.18
2018-06-11T03:31:56.346Z,63.24
2018-06-11T03:34:23.086Z,63.02
2018-06-11T03:36:49.785Z,63.06
2018-06-11T03:39:16.454Z,63.50
2018-06-11T03:41:43.169Z,61.33
2018-06-11T03:44:09.902Z,56.46
2018-06-11T03:46:36.747Z,55.76
2018-06-11T03:49:03.434Z,55.09
2018-06-11T03:51:30.283Z,57.51
2018-06-11T03:53:57.001Z,59.42
2018-06-11T03:56:23.754Z,59.87
2018-06-11T03:58:50.478Z,59.52
2018-06-11T04:01:20.917Z,59.92
2018-06-11T04:03:47.653Z,59.15
2018-06-11T04:06:14.342Z,60.87
2018-06-11T04:08:41.020Z,60.85
2018-06-11T04:11:08.793Z,60.19
2018-06-11T04:13:35.331Z,61.78
2018-06-11T04:16:02.069Z,60.75
2018-06-11T04:18:28.737Z,60.68
2018-06-11T04:20:55.401Z,56.97
2018-06-11T04:23:21.992Z,56.90
2018-06-11T04:25:48.573Z,58.08
2018-06-11T04:28:18.761Z,59.00
2018-06-11T04:30:45.506Z,57.88
2018-06-11T04:33:12.248Z,56.34
2018-06-11T04:35:39.165Z,57.15
2018-06-11T04:38:05.751Z,56.63
2018-06-11T04:40:32.408Z,57.62
2018-06-11T04:42:59.034Z,57.65
2018-06-11T04:45:25.678Z,54.45
2018-06-11T04:47:52.393Z,54.50
2018-06-11T04:50:20.314Z,54.32
2018-06-11T04:52:47.034Z,53.98
2018-06-11T04:55:13.538Z,55.22
2018-06-11T04:57:40.270Z,56.59
2018-06-11T05:00:07.783Z,55.52
2018-06-11T05:02:34.466Z,57.18
2018-06-11T05:05:01.341Z,55.70
2018-06-11T05:07:28.018Z,58.40
2018-06-11T05:09:54.919Z,56.17
2018-06-11T05:12:25.313Z,54.79
2018-06-11T05:14:52.064Z,55.35
2018-06-11T05:17:18.894Z,53.71
2018-06-11T05:19:50.272Z,52.12
2018-06-11T05:22:17.036Z,54.12
2018-06-11T05:24:43.779Z,52.54
2018-06-11T05:27:10.339Z,51.70
2018-06-11T05:29:37.057Z,52.23
2018-06-11T05:32:03.784Z,50.80
2018-06-11T05:34:30.601Z,51.66
2018-06-11T05:36:57.239Z,51.04
2018-06-11T05:39:31.525Z,50.28
2018-06-11T05:41:58.327Z,50.05
2018-06-11T05:44:24.980Z,48.81
2018-06-11T05:46:51.746Z,47.30
2018-06-11T05:49:21.614Z,46.74
2018-06-11T05:51:48.237Z,50.47
2018-06-11T05:54:14.843Z,52.94
2018-06-11T05:56:41.627Z,51.92
2018-06-11T05:59:14.320Z,47.56
2018-06-11T06:01:40.990Z,45.34
2018-06-11T06:04:07.605Z,46.27
2018-06-11T06:06:34.186Z,44.26
2018-06-11T06:09:04.325Z,47.30
2018-06-11T06:11:30.884Z,45.51
2018-06-11T06:13:57.583Z,44.90
2018-06-11T06:16:24.418Z,44.70
2018-06-11T06:18:51.154Z,42.91
2018-06-11T06:21:17.939Z,42.41
2018-06-11T19:15:51.981Z,62.66
2018-06-11T19:18:23.210Z,63.67
2018-06-11T19:20:53.644Z,65.40
2018-06-11T19:23:23.731Z,65.29
2018-06-11T19:25:54.084Z,64.98
2018-06-11T19:28:24.422Z,65.86
2018-06-11T19:30:54.865Z,67.75
2018-06-11T19:33:25.367Z,68.83
2018-06-11T19:35:55.643Z,69.56
2018-06-11T19:38:25.875Z,67.56
2018-06-11T19:40:56.087Z,67.40
2018-06-11T19:43:28.999Z,66.78
2018-06-11T19:46:00.833Z,67.38
2018-06-11T19:48:35.675Z,69.08
2018-06-11T19:51:06.076Z,70.08
2018-06-11T19:53:36.235Z,71.16
2018-06-11T19:56:06.668Z,71.23
2018-06-11T19:58:39.020Z,71.36
2018-06-11T20:01:09.461Z,70.39
2018-06-11T20:03:39.812Z,69.03
2018-06-11T20:06:10.123Z,68.57
2018-06-11T20:08:44.974Z,70.40
2018-06-11T20:11:15.393Z,72.28
2018-06-11T20:13:45.823Z,73.16
2018-06-11T20:16:16.334Z,72.02
2018-06-11T20:18:47.345Z,69.67
2018-06-11T20:21:17.749Z,69.76
2018-06-11T20:23:47.675Z,69.37
2018-06-11T20:26:18.070Z,69.10
2018-06-11T20:28:49.386Z,69.87
2018-06-11T20:31:19.793Z,69.28
2018-06-11T20:33:50.211Z,70.78
2018-06-11T20:36:20.689Z,73.38
2018-06-11T20:38:54.245Z,74.18
2018-06-11T20:41:24.666Z,72.21
2018-06-11T20:43:55.930Z,71.94
2018-06-11T20:46:26.288Z,72.75
2018-06-11T20:48:56.833Z,73.53
2018-06-11T20:51:27.244Z,73.21
2018-06-11T20:53:57.523Z,73.69
2018-06-11T20:56:28.054Z,74.17
2018-06-11T20:58:58.230Z,72.73
2018-06-11T21:01:28.606Z,71.05
2018-06-11T21:03:59.002Z,71.05
2018-06-11T21:06:29.393Z,71.12
2018-06-11T21:08:59.801Z,70.79
2018-06-11T21:11:30.301Z,71.23
2018-06-11T21:14:00.636Z,71.06
2018-06-11T21:18:50.364Z,72.49
2018-06-11T21:21:20.776Z,71.90
2018-06-11T21:23:51.125Z,71.90
2018-06-11T21:26:21.462Z,71.59
2018-06-11T21:28:52.882Z,72.23
2018-06-11T21:31:24.358Z,72.82
2018-06-11T21:33:54.756Z,73.20
2018-06-11T21:36:25.072Z,75.33
2018-06-11T21:38:56.342Z,75.61
2018-06-11T21:41:26.733Z,73.67
2018-06-11T21:43:56.975Z,72.69
2018-06-11T21:46:27.243Z,72.60
2018-06-11T21:48:57.769Z,74.20
2018-06-11T21:51:28.214Z,75.52
2018-06-11T21:54:01.490Z,73.86
2018-06-11T21:56:31.720Z,73.16
2018-06-11T21:59:03.231Z,73.51
2018-06-11T22:01:33.778Z,73.50
2018-06-11T22:04:04.363Z,72.98
2018-06-11T22:06:34.286Z,73.29
2018-06-11T22:09:04.677Z,73.97
2018-06-11T22:11:34.847Z,72.62
2018-06-11T22:14:04.958Z,72.21
2018-06-11T22:16:35.362Z,72.70
2018-06-11T22:19:05.646Z,72.77
2018-06-11T22:21:35.928Z,71.96
2018-06-11T22:24:07.205Z,71.81
2018-06-11T22:26:37.372Z,72.27
2018-06-11T22:29:07.803Z,72.93
2018-06-11T22:31:38.186Z,73.55
2018-06-11T22:34:08.437Z,73.63
2018-06-11T22:36:38.862Z,72.74
2018-06-11T22:39:09.410Z,72.12
2018-06-11T22:41:39.809Z,72.45
2018-06-11T22:44:10.038Z,74.20
2018-06-11T22:46:40.310Z,72.31
2018-06-11T22:49:10.736Z,72.00
2018-06-11T22:51:41.150Z,72.93
2018-06-11T22:54:11.561Z,75.78
2018-06-11T22:56:41.674Z,75.97
2018-06-11T22:59:15.590Z,74.41
2018-06-11T23:01:46.005Z,74.55
2018-06-11T23:04:16.372Z,74.19
2018-06-11T23:06:46.776Z,75.10
2018-06-11T23:09:16.981Z,76.63
2018-06-11T23:11:47.377Z,77.43
2018-06-11T23:14:17.710Z,77.03
2018-06-11T23:16:47.823Z,74.89
2018-06-11T23:19:18.163Z,74.40
2018-06-11T23:21:48.521Z,73.61
2018-06-11T23:24:18.525Z,74.06
2018-06-11T23:26:48.930Z,73.85
2018-06-11T23:29:20.135Z,75.10
2018-06-11T23:31:50.458Z,75.80
2018-06-11T23:34:20.842Z,75.76
2018-06-11T23:36:51.153Z,75.93
2018-06-11T23:39:22.404Z,76.07
2018-06-11T23:41:52.713Z,73.84
2018-06-11T23:44:23.039Z,72.92
2018-06-11T23:46:53.453Z,72.47
2018-06-11T23:49:27.045Z,72.49
2018-06-11T23:51:57.558Z,71.74
2018-06-11T23:54:27.898Z,71.41
2018-06-11T23:56:58.297Z,71.00
2018-06-11T23:59:29.504Z,71.64
